createdAt,value
2023-02-19T00:00:00.308Z,63.87
2023-02-19T00:00:32.164Z,64.10
2023-02-19T00:01:15.846Z,63.83
2023-02-19T00:01:48.087Z,63.84
2023-02-19T00:02:21.248Z,63.58
2023-02-19T00:02:53.043Z,63.25
2023-02-19T00:03:25.088Z,63.34
2023-02-19T00:04:02.360Z,63.51
2023-02-19T00:04:34.170Z,63.41
2023-02-19T00:05:06.309Z,63.20
2023-02-19T00:05:38.156Z,63.16
2023-02-19T00:06:11.563Z,63.43
2023-02-19T00:06:45.017Z,63.27
2023-02-19T00:07:18.094Z,63.49
2023-02-19T00:07:50.486Z,63.65
2023-02-19T00:08:22.339Z,63.73
2023-02-19T00:08:54.595Z,63.69
2023-02-19T00:09:26.458Z,63.90
2023-02-19T00:09:58.260Z,63.76
2023-02-19T00:10:30.240Z,63.77
2023-02-19T00:11:07.937Z,63.90
2023-02-19T00:11:40.669Z,63.58
2023-02-19T00:12:12.574Z,63.45
2023-02-19T00:12:44.852Z,63.27
2023-02-19T00:13:16.741Z,63.49
2023-02-19T00:13:51.271Z,63.98
2023-02-19T00:14:23.234Z,63.60
2023-02-19T00:14:57.180Z,63.13
2023-02-19T00:15:30.624Z,63.43
2023-02-19T00:16:10.685Z,63.64
2023-02-19T00:16:42.654Z,63.22
2023-02-19T00:17:14.473Z,63.62
2023-02-19T00:17:46.254Z,63.40
2023-02-19T00:18:18.273Z,63.29
2023-02-19T00:18:51.201Z,63.44
2023-02-19T00:19:23.281Z,63.71
2023-02-19T00:19:55.075Z,63.63
2023-02-19T00:20:26.993Z,63.47
2023-02-19T00:20:58.802Z,63.54
2023-02-19T00:21:31.129Z,63.56
2023-02-19T00:22:02.927Z,63.19
2023-02-19T00:22:34.671Z,63.22
2023-02-19T00:23:06.547Z,63.71
2023-02-19T00:23:38.390Z,63.80
2023-02-19T00:24:12.600Z,63.84
2023-02-19T00:24:44.477Z,63.76
2023-02-19T00:25:16.322Z,63.88
2023-02-19T00:25:48.118Z,63.57
2023-02-19T00:26:20.153Z,63.67
2023-02-19T00:26:51.996Z,63.75
2023-02-19T00:27:23.770Z,63.38
2023-02-19T00:27:55.643Z,64.32
2023-02-19T00:28:27.535Z,63.95
2023-02-19T00:29:01.045Z,63.95
2023-02-19T00:29:32.933Z,64.21
2023-02-19T00:30:04.965Z,64.22
2023-02-19T00:30:36.868Z,64.09
2023-02-19T00:31:13.450Z,64.20
2023-02-19T00:31:47.353Z,64.08
2023-02-19T00:32:19.258Z,64.23
2023-02-19T00:32:54.442Z,64.37
2023-02-19T00:33:26.362Z,64.31
2023-02-19T00:34:00.892Z,64.28
2023-02-19T00:34:32.746Z,64.52
2023-02-19T00:35:04.657Z,64.42
2023-02-19T00:35:36.573Z,64.39
2023-02-19T00:36:09.862Z,64.29
2023-02-19T00:36:43.227Z,64.48
2023-02-19T00:37:15.021Z,64.75
2023-02-19T00:37:46.873Z,64.37
2023-02-19T00:38:18.641Z,64.24
2023-02-19T00:38:51.144Z,64.44
2023-02-19T00:39:23.095Z,64.28
2023-02-19T00:39:54.875Z,63.86
2023-02-19T00:40:26.761Z,64.33
2023-02-19T00:41:02.345Z,64.48
2023-02-19T00:41:35.024Z,64.70
2023-02-19T00:42:06.831Z,64.91
2023-02-19T00:42:38.635Z,65.24
2023-02-19T00:43:10.360Z,65.35
2023-02-19T00:43:42.096Z,65.91
2023-02-19T00:44:15.299Z,66.25
2023-02-19T00:44:47.136Z,66.19
2023-02-19T00:45:19.512Z,66.05
2023-02-19T00:45:51.265Z,66.04
2023-02-19T00:46:39.544Z,67.15
2023-02-19T00:47:11.368Z,66.32
2023-02-19T00:47:43.197Z,66.83
2023-02-19T00:48:14.980Z,66.95
2023-02-19T00:48:47.458Z,66.30
2023-02-19T00:49:21.960Z,66.19
2023-02-19T00:49:53.721Z,66.14
2023-02-19T00:50:25.524Z,65.08
2023-02-19T00:50:57.294Z,65.13
2023-02-19T00:51:32.928Z,64.91
2023-02-19T00:52:04.888Z,65.05
2023-02-19T00:52:37.453Z,65.09
2023-02-19T00:53:09.305Z,65.13
2023-02-19T00:53:41.903Z,65.43
2023-02-19T00:54:14.516Z,64.95
2023-02-19T00:54:46.361Z,65.00
2023-02-19T00:55:18.288Z,64.69
2023-02-19T00:55:50.037Z,64.89
2023-02-19T00:56:22.132Z,64.54
2023-02-19T00:56:53.985Z,65.04
2023-02-19T00:57:25.818Z,65.01
2023-02-19T00:57:57.700Z,65.20
2023-02-19T00:58:29.465Z,65.09
2023-02-19T00:59:01.239Z,64.93
2023-02-19T00:59:33.055Z,64.94
2023-02-19T01:00:06.802Z,64.89
2023-02-19T01:00:39.200Z,64.49
2023-02-19T01:01:11.968Z,64.24
2023-02-19T01:01:45.099Z,64.21
2023-02-19T01:02:16.933Z,64.28
2023-02-19T01:02:48.778Z,64.33
2023-02-19T01:03:22.703Z,64.66
2023-02-19T01:03:54.547Z,64.75
2023-02-19T01:04:26.398Z,64.78
2023-02-19T01:04:58.265Z,64.50
2023-02-19T01:05:30.045Z,64.54
2023-02-19T01:06:02.174Z,65.15
2023-02-19T01:06:34.849Z,64.66
2023-02-19T01:07:07.930Z,64.87
2023-02-19T01:07:40.854Z,64.48
2023-02-19T01:08:12.623Z,64.43
2023-02-19T01:08:44.647Z,64.63
2023-02-19T01:09:17.480Z,64.18
2023-02-19T01:09:49.694Z,64.68
2023-02-19T01:10:21.513Z,64.56
2023-02-19T01:10:53.393Z,65.15
2023-02-19T01:11:25.663Z,65.49
2023-02-19T01:11:57.440Z,64.97
2023-02-19T01:12:29.392Z,65.22
2023-02-19T01:13:01.257Z,65.36
2023-02-19T01:13:34.176Z,65.75
2023-02-19T01:14:06.020Z,66.18
2023-02-19T01:14:37.872Z,66.12
2023-02-19T01:15:09.829Z,66.62
2023-02-19T01:15:41.665Z,66.54
2023-02-19T01:16:18.957Z,66.58
2023-02-19T01:16:50.881Z,66.57
2023-02-19T01:17:22.972Z,66.52
2023-02-19T01:17:54.828Z,66.91
2023-02-19T01:18:27.161Z,67.33
2023-02-19T01:18:59.664Z,66.96
2023-02-19T01:19:31.480Z,67.14
2023-02-19T01:20:04.035Z,67.31
2023-02-19T01:20:39.193Z,67.28
2023-02-19T01:21:30.817Z,67.41
2023-02-19T01:22:02.573Z,67.81
2023-02-19T01:22:34.402Z,67.54
2023-02-19T01:23:06.381Z,67.91
2023-02-19T01:23:38.339Z,67.93
2023-02-19T01:24:10.252Z,67.77
2023-02-19T01:24:42.132Z,67.94
2023-02-19T01:25:13.950Z,68.13
2023-02-19T01:25:45.791Z,68.37
2023-02-19T01:26:30.456Z,68.01
2023-02-19T01:27:02.218Z,68.04
2023-02-19T01:27:34.046Z,68.20
2023-02-19T01:28:06.395Z,67.88
2023-02-19T01:28:38.178Z,67.91
2023-02-19T01:29:10.068Z,67.65
2023-02-19T01:29:45.607Z,67.40
2023-02-19T01:30:17.865Z,67.20
2023-02-19T01:30:49.653Z,66.87
2023-02-19T01:31:24.121Z,66.93
2023-02-19T01:31:56.322Z,66.65
2023-02-19T01:32:28.292Z,66.01
2023-02-19T01:33:00.027Z,65.98
2023-02-19T01:33:31.968Z,65.97
2023-02-19T01:34:04.700Z,65.47
2023-02-19T01:34:36.523Z,65.49
2023-02-19T01:35:08.869Z,65.18
2023-02-19T01:35:40.952Z,65.41
2023-02-19T01:36:14.437Z,65.53
2023-02-19T01:36:46.248Z,65.34
2023-02-19T01:37:18.205Z,65.12
2023-02-19T01:37:50.058Z,65.19
2023-02-19T01:38:21.928Z,65.60
2023-02-19T01:38:54.140Z,65.04
2023-02-19T01:39:25.867Z,64.71
2023-02-19T01:39:57.780Z,64.56
2023-02-19T01:40:29.790Z,65.42
2023-02-19T01:41:04.154Z,65.02
2023-02-19T01:41:39.584Z,65.11
2023-02-19T01:42:15.206Z,65.11
2023-02-19T01:42:47.091Z,64.42
2023-02-19T01:43:18.851Z,64.41
2023-02-19T01:43:59.316Z,64.57
2023-02-19T01:44:30.993Z,64.43
2023-02-19T01:45:23.276Z,64.74
2023-02-19T01:45:55.648Z,64.39
2023-02-19T01:46:36.664Z,64.31
2023-02-19T01:47:08.589Z,64.27
2023-02-19T01:47:40.670Z,64.03
2023-02-19T01:48:45.382Z,63.88
2023-02-19T01:49:48.975Z,64.39
2023-02-19T01:50:21.149Z,64.92
2023-02-19T01:50:58.733Z,65.16
2023-02-19T01:51:34.854Z,65.50
2023-02-19T01:52:13.782Z,65.30
2023-02-19T01:52:45.942Z,65.52
2023-02-19T01:53:24.087Z,65.96
2023-02-19T01:54:00.928Z,65.82
2023-02-19T01:54:40.875Z,65.76
2023-02-19T01:55:14.197Z,65.35
2023-02-19T01:55:50.212Z,65.10
2023-02-19T01:56:25.779Z,65.36
2023-02-19T01:56:59.936Z,65.24
2023-02-19T01:57:38.561Z,64.74
2023-02-19T01:58:10.951Z,65.04
2023-02-19T01:58:43.833Z,65.12
2023-02-19T01:59:17.288Z,64.99
2023-02-19T01:59:55.384Z,64.80
2023-02-19T02:00:27.676Z,65.21
2023-02-19T02:01:03.126Z,64.90
2023-02-19T02:01:38.784Z,64.56
2023-02-19T02:02:10.993Z,64.63
2023-02-19T02:02:48.372Z,64.29
2023-02-19T02:03:21.140Z,64.31
2023-02-19T02:03:53.520Z,64.46
2023-02-19T02:04:26.677Z,64.13
2023-02-19T02:05:00.813Z,64.16
2023-02-19T02:06:16.888Z,63.85
2023-02-19T02:06:53.354Z,63.94
2023-02-19T02:07:43.943Z,63.83
2023-02-19T02:08:36.560Z,63.92
2023-02-19T02:09:27.527Z,63.55
2023-02-19T02:10:18.202Z,63.72
2023-02-19T02:10:52.232Z,63.57
2023-02-19T02:11:24.661Z,63.38
2023-02-19T02:11:56.568Z,63.33
2023-02-19T02:12:28.372Z,63.30
2023-02-19T02:13:00.267Z,63.08
2023-02-19T02:13:35.601Z,63.43
2023-02-19T02:14:07.971Z,63.25
2023-02-19T02:14:44.434Z,63.03
2023-02-19T02:15:17.637Z,62.89
2023-02-19T02:16:20.110Z,62.88
2023-02-19T02:16:55.661Z,63.28
2023-02-19T02:17:44.838Z,63.03
2023-02-19T02:20:07.411Z,63.40
2023-02-19T02:20:51.724Z,63.28
2023-02-19T02:21:56.595Z,63.23
2023-02-19T02:22:37.928Z,63.29
2023-02-19T02:23:41.791Z,63.05
2023-02-19T02:24:31.796Z,63.16
2023-02-19T02:25:06.352Z,63.27
2023-02-19T02:25:38.064Z,62.99
2023-02-19T02:26:33.088Z,63.24
2023-02-19T02:27:23.133Z,63.15
2023-02-19T02:28:53.879Z,63.34
2023-02-19T02:29:56.168Z,63.37
2023-02-19T02:30:54.990Z,62.91
2023-02-19T02:31:35.287Z,62.91
2023-02-19T02:32:13.829Z,62.95
2023-02-19T02:33:25.950Z,63.04
2023-02-19T02:36:09.363Z,63.04
2023-02-19T02:36:46.912Z,62.93
2023-02-19T03:08:29.992Z,62.22
2023-02-19T03:09:30.380Z,62.33
2023-02-19T03:10:08.163Z,62.23
2023-02-19T03:11:30.270Z,62.30
2023-02-19T03:12:24.294Z,61.97
2023-02-19T03:13:18.941Z,61.86
2023-02-19T03:14:23.139Z,61.84
2023-02-19T03:15:21.572Z,61.76
2023-02-19T03:16:18.808Z,61.90
2023-02-19T03:17:10.877Z,61.93
2023-02-19T03:18:09.300Z,62.40
2023-02-19T03:19:05.034Z,62.27
2023-02-19T03:19:44.146Z,62.37
2023-02-19T03:20:21.368Z,62.00
2023-02-19T03:21:28.805Z,62.17
2023-02-19T03:22:10.913Z,62.20
2023-02-19T03:22:46.141Z,62.51
2023-02-19T03:23:20.788Z,62.49
2023-02-19T03:24:12.527Z,62.19
2023-02-19T03:25:11.107Z,62.35
2023-02-19T03:26:01.750Z,62.16
2023-02-19T03:26:35.381Z,62.63
2023-02-19T03:27:27.240Z,62.54
2023-02-19T03:28:03.072Z,62.06
2023-02-19T03:28:59.637Z,62.24
2023-02-19T03:29:37.727Z,62.56
2023-02-19T03:30:21.209Z,62.47
2023-02-19T03:30:55.864Z,62.03
2023-02-19T03:31:32.178Z,62.40
2023-02-19T03:32:13.041Z,62.47
2023-02-19T03:32:54.883Z,62.45
2023-02-19T03:33:29.989Z,62.49
2023-02-19T03:34:08.770Z,62.52
2023-02-19T03:34:48.424Z,62.71
2023-02-19T03:35:27.576Z,62.77
2023-02-19T03:36:06.579Z,62.70
2023-02-19T03:36:44.801Z,62.57
2023-02-19T03:37:28.600Z,62.49
2023-02-19T03:38:22.121Z,62.40
2023-02-19T03:39:02.589Z,62.29
2023-02-19T03:39:44.384Z,62.29
2023-02-19T03:40:17.016Z,62.74
2023-02-19T03:41:10.909Z,62.49
2023-02-19T03:42:10.582Z,62.70
2023-02-19T03:43:12.088Z,62.51
2023-02-19T03:43:52.644Z,62.25
2023-02-19T03:44:45.688Z,62.53
2023-02-19T03:45:38.930Z,62.43
2023-02-19T03:46:42.541Z,62.47
2023-02-19T03:47:19.409Z,62.41
2023-02-19T03:48:12.523Z,62.58
2023-02-19T03:49:10.664Z,62.14
2023-02-19T03:49:45.489Z,62.26
2023-02-19T03:50:34.971Z,62.51
2023-02-19T03:51:15.259Z,62.48
2023-02-19T03:52:28.879Z,62.10
2023-02-19T03:53:52.958Z,62.24
2023-02-19T03:55:02.760Z,62.17
2023-02-19T03:55:34.442Z,62.38
2023-02-19T03:56:39.633Z,62.59
2023-02-19T03:57:45.271Z,62.46
2023-02-19T03:58:20.343Z,62.51
2023-02-19T03:59:09.175Z,62.27
2023-02-19T04:00:23.613Z,62.33
2023-02-19T04:01:13.768Z,62.32
2023-02-19T04:02:46.902Z,62.12
2023-02-19T04:04:01.693Z,62.71
2023-02-19T04:04:39.866Z,62.47
2023-02-19T04:05:17.736Z,62.33
2023-02-19T04:05:57.505Z,62.58
2023-02-19T04:06:33.190Z,62.23
2023-02-19T04:07:05.649Z,62.14
2023-02-19T04:07:45.385Z,62.27
2023-02-19T04:08:22.402Z,62.22
2023-02-19T04:08:59.488Z,62.58
2023-02-19T04:09:38.193Z,62.17
2023-02-19T04:10:10.404Z,62.54
2023-02-19T04:10:44.357Z,62.55
2023-02-19T04:11:18.824Z,62.20
2023-02-19T04:11:53.262Z,62.39
2023-02-19T04:12:25.680Z,62.68
2023-02-19T04:13:07.045Z,62.79
2023-02-19T04:14:05.490Z,62.69
2023-02-19T04:15:21.224Z,62.59
2023-02-19T04:15:58.413Z,62.72
2023-02-19T04:17:08.938Z,62.52
2023-02-19T04:17:57.530Z,62.48
2023-02-19T04:18:36.435Z,62.64
2023-02-19T04:19:13.582Z,62.49
2023-02-19T04:19:50.290Z,62.68
2023-02-19T04:20:27.674Z,62.75
2023-02-19T04:21:01.511Z,62.90
2023-02-19T04:22:12.522Z,62.64
2023-02-19T04:22:44.926Z,62.65
2023-02-19T04:23:24.184Z,62.79
2023-02-19T04:24:00.990Z,62.86
2023-02-19T04:24:41.454Z,62.73
2023-02-19T04:25:13.323Z,62.99
2023-02-19T04:25:49.962Z,62.71
2023-02-19T04:26:23.453Z,62.65
2023-02-19T04:26:56.492Z,62.66
2023-02-19T04:27:28.740Z,62.92
2023-02-19T04:28:00.741Z,62.72
2023-02-19T04:28:33.169Z,62.76
2023-02-19T04:29:05.002Z,62.76
2023-02-19T04:29:39.170Z,62.95
2023-02-19T04:30:14.732Z,62.85
2023-02-19T04:30:47.163Z,62.87
2023-02-19T04:31:19.159Z,62.74
2023-02-19T04:31:51.126Z,62.50
2023-02-19T04:32:23.038Z,62.55
2023-02-19T04:32:54.926Z,62.29
2023-02-19T04:33:26.749Z,62.66
2023-02-19T04:33:58.586Z,62.57
2023-02-19T04:34:30.397Z,62.40
2023-02-19T04:35:02.170Z,62.80
2023-02-19T04:35:33.935Z,62.76
2023-02-19T04:36:07.353Z,62.77
2023-02-19T04:36:39.323Z,63.06
2023-02-19T04:37:11.539Z,62.60
2023-02-19T04:37:43.530Z,62.75
2023-02-19T04:38:15.494Z,62.81
2023-02-19T04:38:47.269Z,62.61
2023-02-19T04:39:19.262Z,62.87
2023-02-19T04:39:51.060Z,62.89
2023-02-19T04:40:22.871Z,62.80
2023-02-19T04:40:54.748Z,62.32
2023-02-19T04:41:26.878Z,62.16
2023-02-19T04:41:58.913Z,62.28
2023-02-19T04:42:30.844Z,62.38
2023-02-19T04:43:02.700Z,62.16
2023-02-19T04:43:34.476Z,62.06
2023-02-19T04:44:06.348Z,62.27
2023-02-19T04:45:10.505Z,62.70
2023-02-19T04:45:42.354Z,62.85
2023-02-19T04:46:14.255Z,62.82
2023-02-19T04:46:46.730Z,62.63
2023-02-19T04:47:18.533Z,62.85
2023-02-19T04:47:50.386Z,62.63
2023-02-19T04:48:22.297Z,62.85
2023-02-19T04:48:54.091Z,62.50
2023-02-19T04:49:25.865Z,62.16
2023-02-19T04:49:57.670Z,62.73
2023-02-19T04:50:29.567Z,62.14
2023-02-19T04:51:06.606Z,62.36
2023-02-19T04:51:40.187Z,62.50
2023-02-19T04:52:12.867Z,62.27
2023-02-19T04:52:44.696Z,62.36
2023-02-19T04:53:16.568Z,62.70
2023-02-19T04:53:48.398Z,62.62
2023-02-19T04:54:20.299Z,62.45
2023-02-19T04:54:52.669Z,62.27
2023-02-19T04:55:24.554Z,62.63
2023-02-19T04:55:56.366Z,62.38
2023-02-19T04:56:29.798Z,62.47
2023-02-19T04:57:01.747Z,62.30
2023-02-19T04:57:33.632Z,62.47
2023-02-19T04:58:05.831Z,62.43
2023-02-19T04:58:38.486Z,62.63
2023-02-19T04:59:10.326Z,62.77
2023-02-19T04:59:42.178Z,62.36
2023-02-19T05:00:14.175Z,62.22
2023-02-19T05:00:45.997Z,62.43
2023-02-19T05:01:18.059Z,62.38
2023-02-19T05:01:49.896Z,62.29
2023-02-19T05:02:21.744Z,62.38
2023-02-19T05:02:55.826Z,62.22
2023-02-19T05:03:27.662Z,62.58
2023-02-19T05:03:59.419Z,62.20
2023-02-19T05:04:31.324Z,62.67
2023-02-19T05:05:03.882Z,62.35
2023-02-19T05:05:35.947Z,62.26
2023-02-19T05:06:11.642Z,62.09
2023-02-19T05:06:43.473Z,62.36
2023-02-19T05:07:17.428Z,62.19
2023-02-19T05:08:14.383Z,62.50
2023-02-19T05:08:46.214Z,62.14
2023-02-19T05:09:18.266Z,62.10
2023-02-19T05:09:50.186Z,62.21
2023-02-19T05:10:22.432Z,62.60
2023-02-19T05:10:59.182Z,62.49
2023-02-19T05:11:31.007Z,62.70
2023-02-19T05:12:02.830Z,62.58
2023-02-19T05:12:34.858Z,62.34
2023-02-19T05:13:07.248Z,62.60
2023-02-19T05:14:12.904Z,62.68
2023-02-19T05:14:45.110Z,62.46
2023-02-19T05:15:20.787Z,62.44
2023-02-19T05:15:57.569Z,62.71
2023-02-19T05:16:29.643Z,62.62
2023-02-19T05:17:01.423Z,62.37
2023-02-19T05:17:34.659Z,62.14
2023-02-19T05:18:06.460Z,62.61
2023-02-19T05:18:38.281Z,62.45
2023-02-19T05:19:12.957Z,62.70
2023-02-19T05:19:45.052Z,62.77
2023-02-19T05:20:17.074Z,62.39
2023-02-19T05:21:21.772Z,62.26
2023-02-19T05:24:24.617Z,62.15
2023-02-19T05:24:56.726Z,62.32
2023-02-19T05:26:22.939Z,62.12
2023-02-19T05:26:54.788Z,61.92
2023-02-19T05:27:26.810Z,62.18
2023-02-19T05:28:17.142Z,61.88
2023-02-19T05:28:52.335Z,61.68
2023-02-19T05:29:24.118Z,61.96
2023-02-19T05:29:55.990Z,61.92
2023-02-19T05:30:27.826Z,62.23
2023-02-19T05:31:06.743Z,62.26
2023-02-19T05:31:38.669Z,62.15
2023-02-19T05:32:43.385Z,62.03
2023-02-19T05:33:20.551Z,61.99
2023-02-19T05:33:53.070Z,61.71
2023-02-19T05:34:26.334Z,62.13
2023-02-19T05:34:58.153Z,62.17
2023-02-19T05:35:29.999Z,62.02
2023-02-19T05:36:10.471Z,62.04
2023-02-19T05:36:42.290Z,62.13
2023-02-19T05:37:14.164Z,62.03
2023-02-19T05:37:45.940Z,61.80
2023-02-19T05:39:09.590Z,62.08
2023-02-19T05:40:39.350Z,62.31
2023-02-19T05:41:20.185Z,62.03
2023-02-19T05:41:52.101Z,62.00
2023-02-19T05:42:42.445Z,62.32
2023-02-19T05:43:14.804Z,61.75
2023-02-19T05:43:47.866Z,61.97
2023-02-19T05:44:19.841Z,61.95
2023-02-19T05:44:55.018Z,61.98
2023-02-19T05:45:27.030Z,61.76
2023-02-19T05:45:59.479Z,61.64
2023-02-19T05:47:03.656Z,61.55
2023-02-19T05:47:36.966Z,61.84
2023-02-19T05:48:12.955Z,61.52
2023-02-19T05:48:44.856Z,61.83
2023-02-19T05:49:17.118Z,61.83
2023-02-19T05:49:49.117Z,62.05
2023-02-19T05:50:20.946Z,61.79
2023-02-19T05:51:27.514Z,61.90
2023-02-19T05:52:03.483Z,61.63
2023-02-19T05:52:35.395Z,61.95
2023-02-19T05:53:07.202Z,61.81
2023-02-19T05:53:39.151Z,61.96
2023-02-19T05:54:11.052Z,61.90
2023-02-19T05:54:42.884Z,61.99
2023-02-19T05:55:15.925Z,62.02
2023-02-19T05:55:47.694Z,62.11
2023-02-19T05:56:40.626Z,62.38
2023-02-19T05:57:48.984Z,62.11
2023-02-19T05:58:20.813Z,62.10
2023-02-19T05:58:54.019Z,62.06
2023-02-19T05:59:26.986Z,62.02
2023-02-19T06:00:33.374Z,62.16
2023-02-19T06:01:05.306Z,62.12
2023-02-19T06:01:37.277Z,62.62
2023-02-19T06:02:41.882Z,62.52
2023-02-19T06:03:13.697Z,62.43
2023-02-19T06:03:45.599Z,62.78
2023-02-19T06:04:20.111Z,62.52
2023-02-19T06:04:52.092Z,62.59
2023-02-19T06:05:24.348Z,62.53
2023-02-19T06:05:56.136Z,62.24
2023-02-19T06:06:28.254Z,62.53
2023-02-19T06:07:00.050Z,62.33
2023-02-19T06:07:33.149Z,62.29
2023-02-19T06:08:05.166Z,62.24
2023-02-19T06:08:40.427Z,62.06
2023-02-19T06:09:15.339Z,62.23
2023-02-19T06:09:51.868Z,61.88
2023-02-19T06:10:28.365Z,62.40
2023-02-19T06:11:03.224Z,62.27
2023-02-19T06:11:35.360Z,62.20
2023-02-19T06:12:08.408Z,62.50
2023-02-19T06:12:40.337Z,62.50
2023-02-19T06:13:12.136Z,62.19
2023-02-19T06:14:17.051Z,62.27
2023-02-19T06:14:49.517Z,62.17
2023-02-19T06:15:22.155Z,62.14
2023-02-19T06:15:54.136Z,62.46
2023-02-19T06:16:26.072Z,62.21
2023-02-19T06:16:57.996Z,62.02
2023-02-19T06:17:29.842Z,62.06
2023-02-19T06:18:02.092Z,62.03
2023-02-19T06:18:34.109Z,62.02
2023-02-19T06:19:06.033Z,62.23
2023-02-19T06:19:37.880Z,62.03
2023-02-19T06:20:10.036Z,61.96
2023-02-19T06:20:43.410Z,62.21
2023-02-19T06:21:16.802Z,62.10
2023-02-19T06:21:51.169Z,62.21
2023-02-19T06:22:55.932Z,62.01
2023-02-19T06:23:30.308Z,61.86
2023-02-19T06:24:09.567Z,62.46
2023-02-19T06:24:41.402Z,62.29
2023-02-19T06:25:13.326Z,62.07
2023-02-19T06:25:45.132Z,61.98
2023-02-19T06:26:18.292Z,61.97
2023-02-19T06:26:50.057Z,61.95
2023-02-19T06:27:23.329Z,62.01
2023-02-19T06:27:55.261Z,61.93
2023-02-19T06:28:27.074Z,62.19
2023-02-19T06:28:58.908Z,62.18
2023-02-19T06:29:32.624Z,62.29
2023-02-19T06:30:04.683Z,61.98
2023-02-19T06:30:37.290Z,62.30
2023-02-19T06:31:11.552Z,62.29
2023-02-19T06:32:02.157Z,61.91
2023-02-19T06:32:34.003Z,62.08
2023-02-19T06:33:05.876Z,61.86
2023-02-19T06:33:40.634Z,62.37
2023-02-19T06:34:12.465Z,62.00
2023-02-19T06:34:44.279Z,62.25
2023-02-19T06:35:16.188Z,62.36
2023-02-19T06:35:48.031Z,62.20
2023-02-19T06:36:21.709Z,61.94
2023-02-19T06:36:53.818Z,62.17
2023-02-19T06:38:03.469Z,61.90
2023-02-19T06:38:35.315Z,61.96
2023-02-19T06:39:07.431Z,62.03
2023-02-19T06:39:39.272Z,61.53
2023-02-19T06:40:11.148Z,61.94
2023-02-19T06:41:15.607Z,61.72
2023-02-19T06:41:47.566Z,61.67
2023-02-19T06:42:52.371Z,61.89
2023-02-19T06:43:24.179Z,61.58
2023-02-19T06:43:58.283Z,61.83
2023-02-19T06:44:30.184Z,61.72
2023-02-19T06:45:01.957Z,61.89
2023-02-19T06:45:33.722Z,61.60
2023-02-19T06:46:07.017Z,61.51
2023-02-19T06:46:38.970Z,61.84
2023-02-19T06:47:10.826Z,61.89
2023-02-19T06:47:42.789Z,61.54
2023-02-19T06:48:14.615Z,61.48
2023-02-19T06:48:46.573Z,61.81
2023-02-19T06:49:18.367Z,61.43
2023-02-19T06:49:50.250Z,61.46
2023-02-19T06:50:22.263Z,61.50
2023-02-19T06:50:54.309Z,61.71
2023-02-19T06:51:28.998Z,61.61
2023-02-19T06:52:02.062Z,61.98
2023-02-19T06:52:33.983Z,62.00
2023-02-19T06:53:05.875Z,61.78
2023-02-19T06:53:37.712Z,61.66
2023-02-19T06:54:09.617Z,61.93
2023-02-19T06:54:41.853Z,62.22
2023-02-19T06:56:02.528Z,61.63
2023-02-19T06:56:39.609Z,62.04
2023-02-19T06:57:44.281Z,61.68
2023-02-19T06:58:16.051Z,61.68
2023-02-19T06:58:48.254Z,61.80
2023-02-19T06:59:20.117Z,61.50
2023-02-19T06:59:52.013Z,61.64
2023-02-19T07:00:57.197Z,61.79
2023-02-19T07:01:34.365Z,61.79
2023-02-19T07:02:06.202Z,61.33
2023-02-19T07:02:38.009Z,61.86
2023-02-19T07:03:09.963Z,62.17
2023-02-19T07:03:41.863Z,61.92
2023-02-19T07:04:13.769Z,62.16
2023-02-19T07:04:45.630Z,62.20
2023-02-19T07:05:52.064Z,62.20
2023-02-19T07:06:27.073Z,61.95
2023-02-19T07:07:00.370Z,62.01
2023-02-19T07:07:35.846Z,62.41
2023-02-19T07:08:08.710Z,62.51
2023-02-19T07:08:40.680Z,62.21
2023-02-19T07:09:50.512Z,62.29
2023-02-19T07:10:22.262Z,62.08
2023-02-19T07:11:35.172Z,62.40
2023-02-19T07:12:09.879Z,62.35
2023-02-19T07:12:45.277Z,62.21
2023-02-19T07:13:17.068Z,62.43
2023-02-19T07:13:48.937Z,62.42
2023-02-19T07:14:21.673Z,62.25
2023-02-19T07:14:53.417Z,62.51
2023-02-19T07:15:25.187Z,62.63
2023-02-19T07:16:08.137Z,62.55
2023-02-19T07:17:12.431Z,62.78
2023-02-19T07:17:44.354Z,62.38
2023-02-19T07:18:47.778Z,62.61
2023-02-19T07:19:21.516Z,62.17
2023-02-19T07:19:53.418Z,62.34
2023-02-19T07:20:25.200Z,62.30
2023-02-19T07:21:32.870Z,62.73
2023-02-19T07:22:05.356Z,62.64
2023-02-19T07:22:37.293Z,62.48
2023-02-19T07:23:09.266Z,62.33
2023-02-19T07:23:42.707Z,62.37
2023-02-19T07:24:14.605Z,62.11
2023-02-19T07:24:47.942Z,62.07
2023-02-19T07:25:52.249Z,62.62
2023-02-19T07:26:24.824Z,62.42
2023-02-19T07:26:56.924Z,62.31
2023-02-19T07:27:32.421Z,62.10
2023-02-19T07:28:06.396Z,61.89
2023-02-19T07:28:38.624Z,62.27
2023-02-19T07:29:10.572Z,61.79
2023-02-19T07:29:42.401Z,62.11
2023-02-19T07:30:46.568Z,62.19
2023-02-19T07:31:21.170Z,62.08
2023-02-19T07:31:53.108Z,61.82
2023-02-19T07:32:26.486Z,61.85
2023-02-19T07:32:58.350Z,61.87
2023-02-19T07:33:30.672Z,61.74
2023-02-19T07:34:02.500Z,61.69
2023-02-19T07:34:34.393Z,62.04
2023-02-19T07:35:06.607Z,61.98
2023-02-19T07:35:38.962Z,62.00
2023-02-19T07:36:11.552Z,61.50
2023-02-19T07:36:44.402Z,61.94
2023-02-19T07:37:16.485Z,62.07
2023-02-19T07:37:48.305Z,61.64
2023-02-19T07:38:21.824Z,61.40
2023-02-19T07:38:57.698Z,62.02
2023-02-19T07:39:29.761Z,61.62
2023-02-19T07:40:01.801Z,61.48
2023-02-19T07:40:34.688Z,61.73
2023-02-19T07:41:39.902Z,61.70
2023-02-19T07:42:11.852Z,62.06
2023-02-19T07:42:43.653Z,61.85
2023-02-19T07:43:15.518Z,61.68
2023-02-19T07:43:47.417Z,61.75
2023-02-19T07:44:19.365Z,61.52
2023-02-19T07:44:51.269Z,61.88
2023-02-19T07:45:23.192Z,61.49
2023-02-19T07:45:55.553Z,61.67
2023-02-19T07:46:27.481Z,61.45
2023-02-19T07:46:59.542Z,61.37
2023-02-19T07:47:31.494Z,61.62
2023-02-19T07:48:03.401Z,61.98
2023-02-19T07:48:36.707Z,61.10
2023-02-19T07:49:08.510Z,61.35
2023-02-19T07:49:40.409Z,61.28
2023-02-19T07:50:13.977Z,61.34
2023-02-19T07:50:57.387Z,61.33
2023-02-19T07:51:29.158Z,61.00
2023-02-19T07:52:01.097Z,60.85
2023-02-19T07:52:34.132Z,61.02
2023-02-19T07:53:06.356Z,60.77
2023-02-19T07:53:38.150Z,61.06
2023-02-19T07:54:09.974Z,60.12
2023-02-19T07:54:41.826Z,60.33
2023-02-19T07:55:13.759Z,60.33
2023-02-19T07:55:45.685Z,60.43
2023-02-19T07:56:18.827Z,60.34
2023-02-19T07:56:50.648Z,60.68
2023-02-19T07:57:22.443Z,60.93
2023-02-19T07:57:54.249Z,60.99
2023-02-19T07:58:26.044Z,60.62
2023-02-19T07:58:57.874Z,60.28
2023-02-19T07:59:29.624Z,60.22
2023-02-19T08:00:01.691Z,60.71
2023-02-19T08:00:33.614Z,60.74
2023-02-19T08:01:19.562Z,60.62
2023-02-19T08:02:09.787Z,60.64
2023-02-19T08:03:00.378Z,60.87
2023-02-19T08:03:32.635Z,61.09
2023-02-19T08:04:04.573Z,60.92
2023-02-19T08:04:36.411Z,61.13
2023-02-19T08:05:08.326Z,60.98
2023-02-19T08:05:42.668Z,60.88
2023-02-19T08:06:14.450Z,60.82
2023-02-19T08:06:46.256Z,60.98
2023-02-19T08:07:18.103Z,60.83
2023-02-19T08:07:49.898Z,60.99
2023-02-19T08:08:21.732Z,60.86
2023-02-19T08:08:55.148Z,61.21
2023-02-19T08:09:28.098Z,61.09
2023-02-19T08:10:20.259Z,60.61
2023-02-19T08:11:10.796Z,60.82
2023-02-19T08:12:01.081Z,60.58
2023-02-19T08:12:51.571Z,60.85
2023-02-19T08:13:25.460Z,60.94
2023-02-19T08:13:57.225Z,60.24
2023-02-19T08:14:29.519Z,60.16
2023-02-19T08:15:01.274Z,60.22
2023-02-19T08:15:33.317Z,60.75
2023-02-19T08:16:17.054Z,60.67
2023-02-19T08:16:53.296Z,60.68
2023-02-19T08:17:25.242Z,60.79
2023-02-19T08:17:57.057Z,60.45
2023-02-19T08:18:31.579Z,60.54
2023-02-19T08:19:03.506Z,60.45
2023-02-19T08:19:35.390Z,60.59
2023-02-19T08:20:08.545Z,60.31
2023-02-19T08:20:40.927Z,60.52
2023-02-19T08:21:13.987Z,60.53
2023-02-19T08:21:45.752Z,60.32
2023-02-19T08:22:17.558Z,60.06
2023-02-19T08:22:49.296Z,59.90
2023-02-19T08:23:21.685Z,60.00
2023-02-19T08:23:53.504Z,59.55
2023-02-19T08:24:25.330Z,60.07
2023-02-19T08:24:57.113Z,60.34
2023-02-19T08:25:29.557Z,60.14
2023-02-19T08:26:02.838Z,59.86
2023-02-19T08:26:35.108Z,60.29
2023-02-19T08:27:07.496Z,60.41
2023-02-19T08:27:39.268Z,60.35
2023-02-19T08:28:12.255Z,60.31
2023-02-19T08:28:44.274Z,59.91
2023-02-19T08:29:16.102Z,59.80
2023-02-19T08:29:47.904Z,60.11
2023-02-19T08:30:19.744Z,59.75
2023-02-19T08:30:51.799Z,59.70
2023-02-19T08:31:23.816Z,59.46
2023-02-19T08:31:55.773Z,59.59
2023-02-19T08:32:27.608Z,60.17
2023-02-19T08:33:02.217Z,59.85
2023-02-19T08:33:35.377Z,60.19
2023-02-19T08:34:07.172Z,60.03